createdAt,value
2023-05-14T00:02:00.353Z,1
2023-05-14T00:14:00.271Z,1
2023-05-14T00:26:00.210Z,1
2023-05-14T00:38:00.227Z,1
2023-05-14T00:50:00.311Z,1
2023-05-14T01:02:00.294Z,1
2023-05-14T01:14:00.258Z,1
2023-05-14T01:26:00.410Z,1
2023-05-14T01:38:00.376Z,1
2023-05-14T01:50:00.339Z,1
2023-05-14T02:02:00.477Z,1
2023-05-14T02:14:00.458Z,1
2023-05-14T02:26:00.395Z,1
2023-05-14T02:38:00.410Z,1
2023-05-14T02:50:00.311Z,1
2023-05-14T03:02:00.516Z,1
2023-05-14T03:14:00.415Z,1
2023-05-14T03:26:00.381Z,1
2023-05-14T03:38:00.582Z,4
2023-05-14T03:50:00.527Z,13
2023-05-14T04:02:00.448Z,33
2023-05-14T04:14:00.423Z,53
2023-05-14T04:26:00.552Z,71
2023-05-14T04:38:00.556Z,82
2023-05-14T04:50:00.456Z,87
2023-05-14T05:02:00.455Z,90
2023-05-14T05:14:00.623Z,92
2023-05-14T05:26:00.570Z,93
2023-05-14T05:38:01.651Z,94
2023-05-14T05:50:00.756Z,95
2023-05-14T06:02:00.628Z,95
2023-05-14T06:14:00.595Z,95
2023-05-14T06:26:00.571Z,96
2023-05-14T06:38:00.899Z,97
2023-05-14T06:50:00.655Z,97
2023-05-14T07:02:00.712Z,97
2023-05-14T07:14:00.575Z,97
2023-05-14T07:26:00.758Z,97
2023-05-14T07:38:00.687Z,97
2023-05-14T07:50:00.690Z,97
2023-05-14T08:02:00.880Z,98
2023-05-14T08:14:00.797Z,98
2023-05-14T08:26:00.721Z,97
2023-05-14T08:38:00.751Z,97
2023-05-14T08:50:00.959Z,97
2023-05-14T09:02:00.862Z,97
2023-05-14T09:14:00.740Z,97
2023-05-14T09:26:00.724Z,97
2023-05-14T09:38:00.892Z,97
2023-05-14T09:50:00.839Z,97
2023-05-14T10:02:00.765Z,97
2023-05-14T10:14:00.956Z,97
2023-05-14T10:26:00.878Z,97
2023-05-14T10:38:00.906Z,97
2023-05-14T10:50:00.778Z,97
2023-05-14T11:02:00.980Z,97
2023-05-14T11:14:00.895Z,97
2023-05-14T11:26:00.925Z,97
2023-05-14T11:38:00.853Z,97
2023-05-14T11:50:01.011Z,97
2023-05-14T12:02:00.954Z,97
2023-05-14T12:14:00.909Z,97
2023-05-14T12:26:01.046Z,97
2023-05-14T12:38:01.073Z,97
2023-05-14T12:50:00.952Z,97
2023-05-14T13:02:00.993Z,97
2023-05-14T13:14:01.105Z,97
2023-05-14T13:26:01.128Z,97
2023-05-14T13:38:01.068Z,97
2023-05-14T13:50:01.028Z,97
2023-05-14T14:02:01.146Z,97
2023-05-14T14:14:01.126Z,97
2023-05-14T14:26:01.067Z,97
2023-05-14T14:38:01.262Z,97
2023-05-14T14:50:01.184Z,97
2023-05-14T15:02:01.170Z,97
2023-05-14T15:14:01.131Z,96
2023-05-14T15:26:01.278Z,96
2023-05-14T15:38:01.236Z,96
2023-05-14T15:50:01.213Z,95
2023-05-14T16:02:01.160Z,94
2023-05-14T16:14:01.319Z,93
2023-05-14T16:26:01.232Z,93
2023-05-14T16:38:01.240Z,93
2023-05-14T16:50:01.169Z,91
2023-05-14T17:02:01.355Z,90
2023-05-14T17:14:01.285Z,89
2023-05-14T17:26:01.220Z,92
2023-05-14T17:38:01.210Z,85
2023-05-14T17:50:01.351Z,91
2023-05-14T18:02:01.291Z,77
2023-05-14T18:14:01.287Z,89
2023-05-14T18:26:01.417Z,79
2023-05-14T18:38:01.433Z,77
2023-05-14T18:50:01.350Z,81
2023-05-14T19:02:01.416Z,83
2023-05-14T19:14:01.778Z,74
2023-05-14T19:26:01.339Z,76
2023-05-14T19:38:01.514Z,71
2023-05-14T19:50:01.481Z,67
2023-05-14T20:02:01.495Z,60
2023-05-14T20:14:01.400Z,40
2023-05-14T20:26:01.509Z,24
2023-05-14T20:38:01.534Z,7
2023-05-14T20:50:01.414Z,2
2023-05-14T21:02:01.671Z,1
2023-05-14T21:14:01.542Z,1
2023-05-14T21:26:01.543Z,1
2023-05-14T21:38:01.553Z,1
2023-05-14T21:50:01.502Z,1
2023-05-14T22:14:01.591Z,1
2023-05-14T22:26:01.517Z,1
2023-05-14T22:38:01.551Z,1
2023-05-14T22:50:01.633Z,1
2023-05-14T23:02:01.624Z,1
2023-05-14T23:14:01.537Z,1
2023-05-14T23:26:01.738Z,1
2023-05-14T23:38:01.692Z,1
2023-05-14T23:50:01.658Z,1
